Time;durP1;ratioP1;P1;durP2;ratioP2;P2;SDS_P1;SDS_P2;PMS_P1;PMS_P2;Temp;Humidity;BMP_temperature;BMP_pressure;BME280_temperature;BME280_humidity;BME280_pressure;Samples;Min_cycle;Max_cycle;Signal;HPM_P1;HPM_P2
2020/12/15 00:02:22;;;;;;;3.50;2.60;;;9.20;99.90;;;;;;5073392;28;20207;-64
2020/12/15 00:04:48;;;;;;;3.30;2.70;;;9.10;99.90;;;;;;5073627;28;20167;-64
2020/12/15 00:07:13;;;;;;;2.77;2.50;;;9.10;99.90;;;;;;5073502;28;20164;-64
2020/12/15 00:09:39;;;;;;;3.07;2.77;;;9.10;99.90;;;;;;5073957;28;20708;-64
2020/12/15 00:12:04;;;;;;;3.27;2.33;;;9.10;99.90;;;;;;5073396;28;20167;-64
2020/12/15 00:14:30;;;;;;;3.20;2.90;;;9.00;99.90;;;;;;5073421;28;20209;-64
2020/12/15 00:16:58;;;;;;;2.63;2.40;;;9.00;99.90;;;;;;5073417;28;20170;-64
2020/12/15 00:19:23;;;;;;;2.63;2.43;;;9.00;99.90;;;;;;5074646;28;20524;-64
2020/12/15 00:21:49;;;;;;;3.30;2.37;;;9.00;99.90;;;;;;5082827;28;20446;-64
2020/12/15 00:24:15;;;;;;;2.63;2.43;;;9.00;99.90;;;;;;5073662;28;20237;-64
2020/12/15 00:26:40;;;;;;;3.13;2.50;;;9.00;99.90;;;;;;5073141;28;20402;-64
2020/12/15 00:29:06;;;;;;;3.43;2.73;;;9.00;99.90;;;;;;5073297;28;20155;-64
2020/12/15 00:31:34;;;;;;;5.23;2.90;;;9.00;99.90;;;;;;5073417;28;20617;-64
2020/12/15 00:34:01;;;;;;;3.70;2.60;;;9.00;99.90;;;;;;5073152;28;20163;-64
2020/12/15 00:36:27;;;;;;;3.43;2.80;;;8.90;99.90;;;;;;5072917;28;20426;-64
2020/12/15 00:38:52;;;;;;;3.93;2.40;;;8.90;99.90;;;;;;5072877;28;20829;-64
2020/12/15 00:41:18;;;;;;;3.83;2.93;;;8.90;99.90;;;;;;5072932;28;20265;-64
2020/12/15 00:43:43;;;;;;;3.70;2.73;;;8.90;99.90;;;;;;5073051;28;20609;-64
2020/12/15 00:46:14;;;;;;;5.73;2.60;;;8.80;99.90;;;;;;5072910;28;20156;-64
2020/12/15 00:48:40;;;;;;;3.33;2.80;;;8.80;99.90;;;;;;5073059;28;20152;-64
2020/12/15 00:51:05;;;;;;;3.00;2.70;;;8.70;99.90;;;;;;5091246;28;20551;-64
2020/12/15 00:53:31;;;;;;;3.43;3.07;;;8.70;99.90;;;;;;5093265;28;20216;-64
2020/12/15 00:55:56;;;;;;;2.70;2.50;;;8.60;99.90;;;;;;5081578;28;20524;-64
2020/12/15 00:58:22;;;;;;;4.40;3.03;;;8.50;99.90;;;;;;5073081;28;20629;-64
2020/12/15 01:00:47;;;;;;;3.63;2.47;;;8.40;99.90;;;;;;5072514;28;20202;-64
2020/12/15 01:03:13;;;;;;;5.10;2.90;;;8.40;99.90;;;;;;5073001;28;20236;-64
2020/12/15 01:05:38;;;;;;;4.23;3.10;;;8.30;99.90;;;;;;5072868;28;20632;-64
2020/12/15 01:08:04;;;;;;;6.30;3.00;;;8.30;99.90;;;;;;5073160;28;20160;-64
2020/12/15 01:10:29;;;;;;;3.20;2.90;;;8.20;99.90;;;;;;5072719;28;20148;-64
2020/12/15 01:12:55;;;;;;;4.63;3.00;;;8.20;99.90;;;;;;5073327;28;20194;-64
2020/12/15 01:15:20;;;;;;;4.40;2.90;;;8.20;99.90;;;;;;5073030;28;20213;-64
2020/12/15 01:17:46;;;;;;;3.40;3.10;;;8.20;99.90;;;;;;5072773;28;20156;-64
2020/12/15 01:20:12;;;;;;;5.27;3.30;;;8.10;99.90;;;;;;5083058;28;20275;-64
2020/12/15 01:22:37;;;;;;;3.33;3.03;;;8.10;99.90;;;;;;5073266;28;20202;-64
2020/12/15 01:25:03;;;;;;;4.47;3.07;;;8.10;99.90;;;;;;5072523;28;20148;-64
2020/12/15 01:27:28;;;;;;;4.47;3.20;;;8.10;99.90;;;;;;5071371;28;20631;-64
2020/12/15 01:29:54;;;;;;;3.53;3.23;;;8.10;99.90;;;;;;5083699;28;20171;-64
2020/12/15 01:32:19;;;;;;;4.27;3.50;;;8.00;99.90;;;;;;5092914;28;20166;-64
2020/12/15 01:34:45;;;;;;;3.30;2.57;;;8.00;99.90;;;;;;5093146;28;20527;-64
2020/12/15 01:37:10;;;;;;;4.93;3.10;;;7.90;99.90;;;;;;5092922;28;20163;-64
2020/12/15 01:39:35;;;;;;;8.20;3.13;;;7.90;99.90;;;;;;5092608;28;20192;-64
2020/12/15 01:42:01;;;;;;;3.60;3.17;;;7.90;99.90;;;;;;5092598;28;20285;-64
2020/12/15 01:44:27;;;;;;;5.87;3.87;;;7.80;99.90;;;;;;5092919;28;20151;-64
2020/12/15 01:46:52;;;;;;;3.87;3.27;;;7.80;99.90;;;;;;5091687;28;20201;-64
2020/12/15 01:49:19;;;;;;;4.87;3.73;;;7.80;99.90;;;;;;5090332;28;20228;-63
2020/12/15 01:51:45;;;;;;;3.97;3.57;;;7.80;99.90;;;;;;5075997;28;20156;-64
2020/12/15 01:54:11;;;;;;;3.60;3.20;;;7.80;99.90;;;;;;5074831;28;20457;-64
2020/12/15 01:56:37;;;;;;;5.47;3.50;;;7.80;99.90;;;;;;5074821;28;20422;-64
2020/12/15 01:59:04;;;;;;;4.07;3.67;;;7.80;99.90;;;;;;5075972;28;20906;-64
2020/12/15 02:01:30;;;;;;;4.53;3.80;;;7.80;99.90;;;;;;5074465;28;20223;-64
2020/12/15 02:03:55;;;;;;;4.00;3.60;;;7.80;99.90;;;;;;5076663;28;20474;-63
2020/12/15 02:06:23;;;;;;;4.20;3.80;;;7.80;99.90;;;;;;5075865;28;20484;-64
2020/12/15 02:08:49;;;;;;;4.80;3.47;;;7.80;99.90;;;;;;5074714;28;20159;-64
2020/12/15 02:11:15;;;;;;;6.60;4.00;;;7.80;99.90;;;;;;5075911;28;20390;-64
2020/12/15 02:13:41;;;;;;;3.53;3.23;;;7.80;99.90;;;;;;5075736;28;20785;-64
2020/12/15 02:16:10;;;;;;;4.80;4.17;;;7.80;99.90;;;;;;5074516;28;20394;-64
2020/12/15 02:18:36;;;;;;;5.27;4.03;;;7.80;99.90;;;;;;5076169;28;20422;-64
2020/12/15 02:21:04;;;;;;;4.80;4.20;;;7.80;99.90;;;;;;5082195;28;20468;-64
2020/12/15 02:23:30;;;;;;;4.47;4.07;;;7.80;99.90;;;;;;5075666;28;20955;-64
2020/12/15 02:25:55;;;;;;;5.40;4.60;;;7.80;99.90;;;;;;5075418;28;20401;-64
2020/12/15 02:28:21;;;;;;;5.33;4.13;;;7.80;99.90;;;;;;5075448;28;20179;-64
2020/12/15 02:30:46;;;;;;;6.10;5.20;;;7.80;99.90;;;;;;5075405;28;20578;-64
2020/12/15 02:33:12;;;;;;;4.13;3.73;;;7.90;99.90;;;;;;5075331;28;20191;-64
2020/12/15 02:35:37;;;;;;;4.60;4.10;;;7.90;99.90;;;;;;5075285;28;20156;-64
2020/12/15 02:38:03;;;;;;;5.00;3.90;;;7.90;99.90;;;;;;5075863;28;20271;-64
2020/12/15 02:40:28;;;;;;;4.50;4.10;;;7.90;99.90;;;;;;5075091;28;20156;-64
2020/12/15 02:42:54;;;;;;;5.00;4.60;;;7.90;99.90;;;;;;5075096;28;20159;-64
2020/12/15 02:45:19;;;;;;;6.10;4.67;;;7.90;99.90;;;;;;5075137;28;20217;-64
2020/12/15 02:47:45;;;;;;;5.23;4.73;;;7.90;99.90;;;;;;5075169;28;20213;-64
2020/12/15 02:50:20;;;;;;;5.10;4.70;;;7.90;99.90;;;;;;5087153;28;20202;-64
2020/12/15 02:52:46;;;;;;;5.63;5.13;;;7.90;99.90;;;;;;5093998;28;20150;-64
2020/12/15 02:55:11;;;;;;;7.70;5.03;;;7.90;99.90;;;;;;5081042;28;20413;-64
2020/12/15 02:57:37;;;;;;;5.57;4.90;;;7.90;99.90;;;;;;5075044;28;20162;-64
2020/12/15 03:00:06;;;;;;;5.50;5.00;;;7.80;99.90;;;;;;5085187;28;20745;-64
2020/12/15 03:02:32;;;;;;;5.13;4.63;;;7.90;99.90;;;;;;5093660;28;20198;-64
2020/12/15 03:04:57;;;;;;;5.47;4.97;;;7.90;99.90;;;;;;5094918;28;20913;-64
2020/12/15 03:07:23;;;;;;;5.10;4.60;;;7.90;99.90;;;;;;5095021;28;20224;-64
2020/12/15 03:09:48;;;;;;;7.10;6.50;;;7.90;99.90;;;;;;5094810;28;20155;-64
2020/12/15 03:12:14;;;;;;;6.70;6.00;;;7.90;99.90;;;;;;5080843;28;20202;-64
2020/12/15 03:14:39;;;;;;;6.70;4.77;;;7.90;99.90;;;;;;5074727;28;20164;-64
2020/12/15 03:17:05;;;;;;;8.23;5.67;;;7.90;99.90;;;;;;5074545;28;20162;-64
2020/12/15 03:19:30;;;;;;;6.40;5.80;;;7.90;99.90;;;;;;5080598;28;20235;-64
2020/12/15 03:21:56;;;;;;;5.90;5.30;;;7.90;99.90;;;;;;5094648;28;20696;-64
2020/12/15 03:24:21;;;;;;;8.83;5.37;;;7.90;99.90;;;;;;5094913;28;20151;-64
2020/12/15 03:26:47;;;;;;;6.30;5.70;;;7.90;99.90;;;;;;5094742;28;20151;-64
2020/12/15 03:29:12;;;;;;;7.57;6.23;;;7.90;99.90;;;;;;5080499;28;20203;-64
2020/12/15 03:31:38;;;;;;;6.40;5.80;;;7.80;99.90;;;;;;5074612;28;20198;-64
2020/12/15 03:34:03;;;;;;;6.60;6.00;;;7.90;99.90;;;;;;5074172;28;20246;-64
2020/12/15 03:36:29;;;;;;;7.00;6.40;;;7.90;99.90;;;;;;5074040;28;20209;-64
2020/12/15 03:38:54;;;;;;;8.33;6.40;;;7.80;99.90;;;;;;5074054;28;20195;-64
2020/12/15 03:41:20;;;;;;;7.60;6.40;;;7.80;99.90;;;;;;5074441;28;20212;-65
2020/12/15 03:43:45;;;;;;;7.87;7.10;;;7.80;99.90;;;;;;5073975;28;20175;-65
2020/12/15 03:46:11;;;;;;;7.20;6.47;;;7.80;99.90;;;;;;5074401;28;20203;-65
2020/12/15 03:48:36;;;;;;;7.53;6.73;;;7.90;99.90;;;;;;5073713;28;20148;-65
2020/12/15 03:51:02;;;;;;;6.70;6.10;;;7.80;99.90;;;;;;5073739;28;20312;-65
2020/12/15 03:53:27;;;;;;;7.73;6.90;;;7.90;99.90;;;;;;5074185;28;20576;-65
2020/12/15 03:55:53;;;;;;;7.83;7.03;;;7.90;99.90;;;;;;5073736;28;20228;-65
2020/12/15 03:58:18;;;;;;;9.10;6.40;;;7.90;99.90;;;;;;5073622;28;20163;-65
2020/12/15 04:00:44;;;;;;;7.63;6.90;;;7.90;99.90;;;;;;5073998;28;20287;-65
2020/12/15 04:03:10;;;;;;;8.07;7.33;;;7.90;99.90;;;;;;5074251;28;20171;-65
2020/12/15 04:05:36;;;;;;;7.30;6.50;;;7.90;99.90;;;;;;5073516;28;20156;-65
2020/12/15 04:08:03;;;;;;;7.03;6.40;;;7.90;99.90;;;;;;5073446;28;20601;-65
2020/12/15 04:10:29;;;;;;;6.80;6.30;;;7.80;99.90;;;;;;5073141;28;20398;-65
2020/12/15 04:12:54;;;;;;;7.13;6.30;;;7.90;99.90;;;;;;5073388;28;20390;-65
2020/12/15 04:15:20;;;;;;;7.70;6.97;;;7.90;99.90;;;;;;5073954;28;20612;-65
2020/12/15 04:17:46;;;;;;;8.10;6.63;;;7.90;99.90;;;;;;5072126;28;20267;-65
2020/12/15 04:20:13;;;;;;;7.60;6.80;;;7.90;99.90;;;;;;5086426;28;20513;-65
2020/12/15 04:22:38;;;;;;;8.50;6.93;;;7.90;99.90;;;;;;5093401;28;20171;-65
2020/12/15 04:25:04;;;;;;;7.13;6.37;;;7.90;99.90;;;;;;5093669;28;20424;-65
2020/12/15 04:27:30;;;;;;;7.47;6.77;;;7.90;99.90;;;;;;5093747;28;20159;-65
2020/12/15 04:29:55;;;;;;;8.33;7.63;;;8.00;99.90;;;;;;5093593;28;20405;-65
2020/12/15 04:32:22;;;;;;;7.20;6.50;;;8.00;99.90;;;;;;5093450;28;20159;-65
2020/12/15 04:34:47;;;;;;;8.30;7.27;;;8.10;99.90;;;;;;5092178;28;20520;-65
2020/12/15 04:37:13;;;;;;;7.70;6.90;;;8.00;99.90;;;;;;5092452;28;20405;-65
2020/12/15 04:39:38;;;;;;;7.60;6.90;;;8.10;99.90;;;;;;5093191;28;20163;-65
2020/12/15 04:42:04;;;;;;;7.87;6.30;;;8.10;99.90;;;;;;5093476;28;20179;-65
2020/12/15 04:44:30;;;;;;;8.37;7.33;;;8.00;99.90;;;;;;5093157;28;20159;-65
2020/12/15 04:49:57;;;;;;;8.33;7.53;;;8.00;99.90;;;;;;5110084;27;20517;-65
2020/12/15 04:52:25;;;;;;;8.63;7.87;;;8.10;99.90;;;;;;5109718;28;20422;-65
2020/12/15 04:54:51;;;;;;;8.07;7.27;;;8.10;99.90;;;;;;5072369;28;20414;-65
2020/12/15 04:57:21;;;;;;;8.10;7.40;;;8.10;99.90;;;;;;5070204;28;20416;-65
2020/12/15 04:59:49;;;;;;;8.10;7.30;;;8.10;99.90;;;;;;5070306;28;20469;-65
2020/12/15 05:02:15;;;;;;;12.37;8.60;;;8.10;99.90;;;;;;5070017;28;20425;-65
2020/12/15 05:04:42;;;;;;;8.20;7.40;;;8.10;99.90;;;;;;5069927;28;20404;-65
2020/12/15 05:07:10;;;;;;;9.70;7.07;;;8.10;99.90;;;;;;5070096;28;20390;-65
2020/12/15 05:09:35;;;;;;;8.47;7.57;;;8.20;99.90;;;;;;5070416;28;20399;-66
2020/12/15 05:12:02;;;;;;;8.33;7.50;;;8.20;99.90;;;;;;5070032;28;20463;-65
2020/12/15 05:14:27;;;;;;;9.33;8.43;;;8.20;99.90;;;;;;5069731;28;20167;-65
2020/12/15 05:16:54;;;;;;;8.60;7.80;;;8.20;99.90;;;;;;5069963;28;20398;-65
2020/12/15 05:19:19;;;;;;;9.30;8.50;;;8.30;99.90;;;;;;5079238;28;20175;-65
2020/12/15 05:21:53;;;;;;;8.77;7.97;;;8.30;99.90;;;;;;5077654;28;20428;-65
2020/12/15 05:24:23;;;;;;;9.63;7.10;;;8.30;99.90;;;;;;5089823;28;20389;-65
2020/12/15 05:26:49;;;;;;;10.70;9.70;;;8.30;99.90;;;;;;5070777;28;20505;-65
2020/12/15 05:29:18;;;;;;;8.83;7.90;;;8.30;99.90;;;;;;5049433;28;20928;-65
2020/12/15 05:31:44;;;;;;;9.60;8.70;;;8.30;99.90;;;;;;5064489;28;20222;-66
2020/12/15 05:34:13;;;;;;;8.47;7.70;;;8.40;99.90;;;;;;5049480;28;20900;-65
2020/12/15 05:36:57;;;;;;;8.53;7.80;;;8.40;99.90;;;;;;5049431;28;20159;-65
2020/12/15 05:39:23;;;;;;;7.97;7.27;;;8.40;99.90;;;;;;5049573;28;20401;-65
2020/12/15 05:42:08;;;;;;;8.53;7.73;;;8.40;99.90;;;;;;5049393;28;20429;-65
2020/12/15 05:44:35;;;;;;;8.93;8.03;;;8.40;99.90;;;;;;5049778;28;20793;-66
2020/12/15 05:47:03;;;;;;;8.27;7.57;;;8.40;99.90;;;;;;5049172;28;20395;-65
2020/12/15 05:49:31;;;;;;;9.07;8.27;;;8.40;99.90;;;;;;5074763;28;20462;-66
2020/12/15 05:51:57;;;;;;;10.50;7.90;;;8.40;99.90;;;;;;5049297;28;20421;-66
2020/12/15 05:54:23;;;;;;;9.93;9.03;;;8.40;99.90;;;;;;5049342;28;20402;-65
2020/12/15 05:57:00;;;;;;;8.77;7.10;;;8.50;99.90;;;;;;5048962;28;20391;-65
2020/12/15 05:59:26;;;;;;;9.10;8.20;;;8.50;99.90;;;;;;5059282;28;20160;-65
2020/12/15 06:01:53;;;;;;;8.33;7.53;;;8.50;99.90;;;;;;5036220;28;20419;-65
2020/12/15 06:04:20;;;;;;;9.03;8.23;;;8.60;99.90;;;;;;5035911;28;20173;-65
2020/12/15 06:06:47;;;;;;;10.43;8.33;;;8.60;99.90;;;;;;5035817;28;20392;-65
2020/12/15 06:09:14;;;;;;;7.90;7.10;;;8.60;99.90;;;;;;5050905;28;20818;-65
2020/12/15 06:11:41;;;;;;;8.53;7.73;;;8.60;99.90;;;;;;5035585;28;20392;-65
2020/12/15 06:14:07;;;;;;;9.43;7.47;;;8.60;99.90;;;;;;5035551;28;20475;-65
2020/12/15 06:16:33;;;;;;;9.40;8.20;;;8.60;99.90;;;;;;5035893;28;20942;-65
2020/12/15 06:19:00;;;;;;;8.80;7.90;;;8.70;99.90;;;;;;5044250;28;20415;-65
2020/12/15 06:21:26;;;;;;;10.00;8.30;;;8.70;99.90;;;;;;5055450;28;20204;-65
2020/12/15 06:24:00;;;;;;;8.93;8.13;;;8.70;99.90;;;;;;5054098;28;20414;-65
2020/12/15 06:26:27;;;;;;;9.17;8.27;;;8.70;99.90;;;;;;5055534;28;20399;-65
2020/12/15 06:28:59;;;;;;;8.77;7.97;;;8.80;99.90;;;;;;5055100;28;20541;-66
2020/12/15 06:31:24;;;;;;;8.70;7.87;;;8.80;99.90;;;;;;5053817;28;20418;-65
2020/12/15 06:33:55;;;;;;;9.00;8.20;;;8.80;99.90;;;;;;5054973;28;20395;-65
2020/12/15 06:36:32;;;;;;;8.57;7.70;;;8.80;99.90;;;;;;5040525;28;20259;-65
2020/12/15 06:39:00;;;;;;;10.57;9.57;;;8.90;99.90;;;;;;5035367;28;20884;-65
2020/12/15 06:41:27;;;;;;;10.00;9.00;;;8.90;99.90;;;;;;5035201;28;20546;-65
2020/12/15 06:44:03;;;;;;;9.33;8.43;;;8.90;99.90;;;;;;5035111;28;20407;-65
2020/12/15 06:46:29;;;;;;;9.47;8.67;;;8.90;99.90;;;;;;5049236;28;20758;-65
2020/12/15 06:48:55;;;;;;;9.13;8.33;;;8.90;99.90;;;;;;5045125;28;20470;-65
2020/12/15 06:51:35;;;;;;;9.97;9.00;;;9.00;99.90;;;;;;5055165;28;20206;-65
2020/12/15 06:54:04;;;;;;;9.73;8.73;;;9.00;99.90;;;;;;5054663;28;20171;-65
2020/12/15 06:56:30;;;;;;;12.30;9.00;;;9.00;99.90;;;;;;5054880;28;20398;-65
2020/12/15 06:59:00;;;;;;;10.00;9.00;;;8.90;99.90;;;;;;5054581;28;20402;-65
2020/12/15 07:01:26;;;;;;;10.00;9.03;;;9.00;99.90;;;;;;5054562;28;20406;-65
2020/12/15 07:03:56;;;;;;;12.10;10.90;;;9.00;99.90;;;;;;5054646;28;20391;-65
2020/12/15 07:06:22;;;;;;;10.33;9.33;;;9.00;99.90;;;;;;5054423;28;20519;-65
2020/12/15 07:09:09;;;;;;;10.87;9.87;;;9.00;99.90;;;;;;5053863;28;20442;-65
2020/12/15 07:11:35;;;;;;;11.00;9.97;;;9.00;99.90;;;;;;5053577;28;20202;-65
2020/12/15 07:14:03;;;;;;;12.00;9.10;;;9.00;99.90;;;;;;5054288;28;20423;-65
2020/12/15 07:16:29;;;;;;;10.00;9.10;;;8.90;99.90;;;;;;5053329;28;20235;-65
2020/12/15 07:18:55;;;;;;;10.17;9.30;;;9.00;99.90;;;;;;5054509;28;20471;-65
2020/12/15 07:21:28;;;;;;;9.67;8.73;;;8.90;99.90;;;;;;5054052;28;20989;-64
2020/12/15 07:23:54;;;;;;;9.80;8.90;;;9.00;99.90;;;;;;5054187;28;20383;-64
2020/12/15 07:26:20;;;;;;;8.60;7.80;;;8.90;99.90;;;;;;5046885;28;20422;-64
2020/12/15 07:28:48;;;;;;;9.80;9.00;;;8.90;99.90;;;;;;5033738;28;20181;-65
2020/12/15 07:31:25;;;;;;;10.30;9.30;;;8.90;99.90;;;;;;5034179;28;20430;-65
2020/12/15 07:33:50;;;;;;;8.50;7.80;;;8.90;99.90;;;;;;5033984;28;20390;-65
2020/12/15 07:36:17;;;;;;;8.90;8.10;;;8.90;99.90;;;;;;5034139;28;20384;-65
2020/12/15 07:38:44;;;;;;;10.97;9.57;;;8.90;99.90;;;;;;5033590;28;20520;-65
2020/12/15 07:41:12;;;;;;;10.63;9.63;;;8.90;99.90;;;;;;5033534;28;20399;-65
2020/12/15 07:43:38;;;;;;;10.77;9.90;;;8.90;99.90;;;;;;5034152;28;20418;-65
2020/12/15 07:46:15;;;;;;;8.80;7.90;;;9.00;99.90;;;;;;5033722;28;20752;-65
2020/12/15 07:48:41;;;;;;;9.23;8.33;;;9.00;99.90;;;;;;5043331;28;20200;-65
2020/12/15 07:51:07;;;;;;;9.20;8.30;;;8.90;99.90;;;;;;5051609;28;20746;-65
2020/12/15 07:53:32;;;;;;;11.10;10.00;;;8.90;99.90;;;;;;5052994;28;20553;-65
2020/12/15 07:56:06;;;;;;;9.57;8.67;;;8.90;99.90;;;;;;5052697;28;20180;-65
2020/12/15 07:58:32;;;;;;;9.20;8.40;;;9.00;99.90;;;;;;5053596;28;20171;-65
2020/12/15 08:00:58;;;;;;;9.27;8.47;;;8.90;99.90;;;;;;5041564;28;20427;-64
2020/12/15 08:03:24;;;;;;;9.80;8.90;;;8.90;99.90;;;;;;5033443;28;20396;-65
2020/12/15 08:05:49;;;;;;;9.30;8.50;;;8.90;99.90;;;;;;5033185;28;20516;-65
2020/12/15 08:08:17;;;;;;;8.80;8.10;;;8.90;99.90;;;;;;5033073;28;20657;-65
2020/12/15 08:10:42;;;;;;;9.00;8.13;;;8.90;99.90;;;;;;5048288;28;20613;-65
2020/12/15 08:13:08;;;;;;;9.20;8.30;;;8.90;99.90;;;;;;5032946;28;20438;-65
2020/12/15 08:15:39;;;;;;;9.07;8.37;;;8.80;99.90;;;;;;5032946;28;20153;-65
2020/12/15 08:18:07;;;;;;;8.33;7.63;;;8.90;99.90;;;;;;5061896;28;20212;-64
2020/12/15 08:20:34;;;;;;;9.00;8.10;;;8.90;99.90;;;;;;5071958;28;20708;-65
2020/12/15 08:25:43;;;;;;;8.57;7.80;;;8.90;99.90;;;;;;5110797;27;20509;-65
2020/12/15 08:30:44;;;;;;;9.37;8.60;;;8.90;99.90;;;;;;5111260;27;20890;-65
2020/12/15 08:33:19;;;;;;;9.50;8.70;;;8.90;99.90;;;;;;5111090;28;20388;-65
2020/12/15 08:35:45;;;;;;;8.70;7.80;;;8.90;99.90;;;;;;5092770;28;20177;-65
2020/12/15 08:38:11;;;;;;;8.23;7.63;;;8.90;99.90;;;;;;5090372;28;20934;-65
2020/12/15 08:40:36;;;;;;;8.23;7.53;;;8.90;99.90;;;;;;5090452;28;20166;-65
2020/12/15 08:43:03;;;;;;;9.20;7.37;;;8.90;99.90;;;;;;5090461;28;20161;-65
2020/12/15 08:45:29;;;;;;;9.73;8.93;;;9.00;99.90;;;;;;5090255;28;20253;-65
2020/12/15 08:47:57;;;;;;;9.37;8.57;;;8.90;99.90;;;;;;5095590;28;20416;-65
2020/12/15 08:50:27;;;;;;;8.40;7.70;;;9.00;99.90;;;;;;5109143;28;20450;-65
2020/12/15 08:53:04;;;;;;;8.80;7.43;;;9.00;99.90;;;;;;5089474;28;20400;-65
2020/12/15 08:55:30;;;;;;;8.23;7.53;;;9.00;99.90;;;;;;5090061;28;20468;-65
2020/12/15 08:57:59;;;;;;;9.23;8.43;;;9.00;99.90;;;;;;5090434;28;20396;-65
2020/12/15 09:00:25;;;;;;;8.80;8.00;;;9.10;99.90;;;;;;5088381;28;20162;-65
2020/12/15 09:02:51;;;;;;;9.33;8.43;;;9.00;99.90;;;;;;5089639;28;20388;-65
2020/12/15 09:05:16;;;;;;;8.57;7.90;;;9.00;99.90;;;;;;5089619;28;20726;-65
2020/12/15 09:07:42;;;;;;;9.40;8.60;;;9.00;99.90;;;;;;5090222;28;20198;-65
2020/12/15 09:12:47;;;;;;;9.67;8.67;;;9.00;99.90;;;;;;5110574;27;20501;-66
2020/12/15 09:15:14;;;;;;;9.93;8.93;;;9.00;99.90;;;;;;5110654;28;20384;-64
2020/12/15 09:17:40;;;;;;;9.00;8.20;;;9.10;99.90;;;;;;5109602;28;20740;-66
2020/12/15 09:20:08;;;;;;;8.30;7.60;;;9.10;99.90;;;;;;5109059;28;20498;-66
2020/12/15 09:22:36;;;;;;;9.13;8.33;;;9.10;99.90;;;;;;5110653;28;20461;-66
2020/12/15 09:25:11;;;;;;;10.17;9.27;;;9.20;99.90;;;;;;5106336;28;20414;-66
2020/12/15 09:27:37;;;;;;;8.30;7.60;;;9.20;99.90;;;;;;5106584;28;20458;-66
2020/12/15 09:30:03;;;;;;;8.10;7.37;;;9.20;99.90;;;;;;5097195;28;20418;-66
2020/12/15 09:32:32;;;;;;;8.87;8.07;;;9.20;99.90;;;;;;5090034;28;20308;-64
2020/12/15 09:34:58;;;;;;;8.07;7.37;;;9.30;99.90;;;;;;5089865;28;20428;-64
2020/12/15 09:37:24;;;;;;;7.67;6.97;;;9.30;99.90;;;;;;5090097;28;20423;-66
2020/12/15 09:39:49;;;;;;;7.83;7.13;;;9.30;99.90;;;;;;5090911;28;20160;-63
2020/12/15 09:42:19;;;;;;;7.80;7.20;;;9.30;99.90;;;;;;5095928;28;20177;-64
2020/12/15 09:44:44;;;;;;;7.00;6.40;;;9.40;99.90;;;;;;5110178;28;20155;-64
2020/12/15 09:47:10;;;;;;;7.10;6.40;;;9.40;99.90;;;;;;5109894;28;20389;-64
2020/12/15 09:49:35;;;;;;;7.40;6.80;;;9.40;99.90;;;;;;5109800;28;20631;-64
2020/12/15 09:52:01;;;;;;;8.03;7.33;;;9.40;99.90;;;;;;5110174;28;20648;-64
2020/12/15 09:54:26;;;;;;;8.47;7.70;;;9.50;99.90;;;;;;5109494;28;20155;-66
2020/12/15 09:56:52;;;;;;;7.40;6.80;;;9.50;99.90;;;;;;5099175;28;20640;-66
2020/12/15 09:59:18;;;;;;;8.50;7.80;;;9.40;99.90;;;;;;5095281;28;20175;-66
2020/12/15 10:01:43;;;;;;;7.63;6.93;;;9.50;99.90;;;;;;5109450;28;20579;-66
2020/12/15 10:04:10;;;;;;;7.30;6.60;;;9.50;99.90;;;;;;5108002;28;20260;-66
2020/12/15 10:06:37;;;;;;;7.50;6.90;;;9.50;99.90;;;;;;5089650;28;20394;-66
2020/12/15 10:09:04;;;;;;;7.37;6.77;;;9.50;99.90;;;;;;5089435;28;20391;-66
2020/12/15 10:11:30;;;;;;;7.40;6.80;;;9.60;99.90;;;;;;5088914;28;20465;-66
2020/12/15 10:13:55;;;;;;;8.47;7.77;;;9.60;99.90;;;;;;5088184;28;20397;-66
2020/12/15 10:16:21;;;;;;;9.20;8.40;;;9.70;99.90;;;;;;5095682;28;20182;-66
2020/12/15 10:18:47;;;;;;;7.63;6.97;;;9.70;99.90;;;;;;5109790;28;20152;-66
2020/12/15 10:21:16;;;;;;;6.53;6.00;;;9.70;99.90;;;;;;5109587;28;20199;-66
2020/12/15 10:23:42;;;;;;;7.80;6.60;;;9.80;99.90;;;;;;5098239;28;20754;-66
2020/12/15 10:26:07;;;;;;;6.10;5.60;;;9.80;99.90;;;;;;5091656;28;20427;-66
2020/12/15 10:28:33;;;;;;;7.40;6.80;;;9.80;99.90;;;;;;5075382;28;20590;-66
2020/12/15 10:30:59;;;;;;;6.83;6.20;;;9.80;99.90;;;;;;5075575;28;20243;-66
2020/12/15 10:33:24;;;;;;;7.53;6.83;;;9.80;99.90;;;;;;5082357;28;20172;-66
2020/12/15 10:35:50;;;;;;;7.43;6.63;;;9.80;99.90;;;;;;5093487;28;20160;-66
2020/12/15 10:38:15;;;;;;;6.30;5.80;;;9.90;99.90;;;;;;5095530;28;20166;-66
2020/12/15 10:40:41;;;;;;;6.50;5.90;;;9.90;99.90;;;;;;5095580;28;20171;-66
2020/12/15 10:43:07;;;;;;;7.03;6.23;;;9.90;99.90;;;;;;5095132;28;20168;-66
2020/12/15 10:45:32;;;;;;;6.97;6.37;;;9.90;99.90;;;;;;5094170;28;20235;-66
2020/12/15 10:47:58;;;;;;;7.70;6.87;;;9.90;99.90;;;;;;5095341;28;20168;-66
2020/12/15 10:50:23;;;;;;;7.20;6.53;;;9.90;99.90;;;;;;5087684;28;20202;-65
2020/12/15 10:52:49;;;;;;;7.50;6.70;;;9.90;99.90;;;;;;5075280;28;20177;-66
2020/12/15 10:55:14;;;;;;;8.17;7.37;;;9.90;99.90;;;;;;5075047;28;20175;-66
2020/12/15 10:57:40;;;;;;;7.97;7.17;;;9.90;99.90;;;;;;5091111;28;20539;-65
2020/12/15 11:00:07;;;;;;;7.37;6.77;;;9.90;99.90;;;;;;5096032;28;20161;-66
2020/12/15 11:02:33;;;;;;;7.60;6.90;;;9.90;99.90;;;;;;5095030;28;20153;-66
2020/12/15 11:04:59;;;;;;;6.40;5.87;;;9.90;99.90;;;;;;5094079;28;20399;-66
2020/12/15 11:07:24;;;;;;;8.03;7.30;;;9.90;99.90;;;;;;5086450;28;20412;-66
2020/12/15 11:09:50;;;;;;;7.20;6.50;;;9.90;99.90;;;;;;5075033;28;20404;-66
2020/12/15 11:12:15;;;;;;;8.00;7.33;;;9.90;99.90;;;;;;5074829;28;20227;-66
2020/12/15 11:14:41;;;;;;;8.00;7.30;;;9.90;99.90;;;;;;5075142;28;20157;-66
2020/12/15 11:17:06;;;;;;;6.97;6.37;;;9.90;99.90;;;;;;5075031;28;20157;-66
2020/12/15 11:19:33;;;;;;;8.37;7.53;;;9.90;99.90;;;;;;5074776;28;20154;-66
2020/12/15 11:21:58;;;;;;;7.53;6.90;;;9.90;99.90;;;;;;5074960;28;20169;-66
2020/12/15 11:24:24;;;;;;;8.53;7.67;;;9.90;99.90;;;;;;5073901;28;20426;-65
2020/12/15 11:26:51;;;;;;;7.70;6.97;;;9.90;99.90;;;;;;5074424;28;20181;-66
2020/12/15 11:29:17;;;;;;;8.97;8.13;;;9.90;99.90;;;;;;5074543;28;20619;-66
2020/12/15 11:31:43;;;;;;;7.80;7.00;;;9.90;99.90;;;;;;5074387;28;20439;-66
2020/12/15 11:34:08;;;;;;;7.80;7.10;;;9.90;99.90;;;;;;5073685;28;20172;-66
2020/12/15 11:36:34;;;;;;;6.67;6.07;;;9.90;99.90;;;;;;5074666;28;20395;-66
2020/12/15 11:38:59;;;;;;;9.63;8.70;;;9.90;99.90;;;;;;5073166;28;20213;-66
2020/12/15 11:41:27;;;;;;;8.73;7.90;;;9.80;99.90;;;;;;5081728;28;20261;-66
2020/12/15 11:43:53;;;;;;;8.40;7.63;;;9.90;99.90;;;;;;5094521;28;20640;-66
2020/12/15 11:46:18;;;;;;;6.90;6.20;;;9.90;99.90;;;;;;5094103;28;20396;-66
2020/12/15 11:48:44;;;;;;;8.43;7.63;;;9.90;99.90;;;;;;5094273;28;20428;-66
2020/12/15 11:51:09;;;;;;;7.70;6.90;;;9.90;99.90;;;;;;5094339;28;20271;-66
2020/12/15 11:53:35;;;;;;;8.20;7.47;;;9.90;99.90;;;;;;5094072;28;20161;-66
2020/12/15 11:56:00;;;;;;;7.73;7.03;;;9.90;99.90;;;;;;5092212;28;20159;-66
2020/12/15 11:58:26;;;;;;;9.47;7.13;;;9.90;99.90;;;;;;5081119;28;20172;-65
2020/12/15 12:00:51;;;;;;;11.20;10.13;;;9.90;99.90;;;;;;5094200;28;20168;-66
2020/12/15 12:03:17;;;;;;;8.90;8.00;;;9.90;99.90;;;;;;5094794;28;20230;-66
2020/12/15 12:05:42;;;;;;;8.67;7.87;;;9.90;99.90;;;;;;5094269;28;20297;-66
2020/12/15 12:08:08;;;;;;;8.30;7.50;;;9.90;99.90;;;;;;5094019;28;20649;-66
2020/12/15 12:10:33;;;;;;;8.93;8.03;;;10.00;99.90;;;;;;5093678;28;20188;-66
2020/12/15 12:12:59;;;;;;;9.80;7.87;;;9.90;99.90;;;;;;5092605;28;20148;-66
2020/12/15 12:15:25;;;;;;;8.90;8.10;;;10.00;99.90;;;;;;5093394;28;20268;-66
2020/12/15 12:17:51;;;;;;;7.57;6.87;;;9.90;99.90;;;;;;5093876;28;20198;-66
2020/12/15 12:20:16;;;;;;;8.80;8.00;;;9.90;99.90;;;;;;5093720;28;20195;-66
2020/12/15 12:22:42;;;;;;;9.60;8.60;;;9.90;99.90;;;;;;5093602;28;20399;-66
2020/12/15 12:25:07;;;;;;;9.17;7.80;;;10.00;99.90;;;;;;5093793;28;20644;-64
2020/12/15 12:27:33;;;;;;;14.00;8.30;;;10.00;99.90;;;;;;5076043;28;20180;-66
2020/12/15 12:29:59;;;;;;;9.90;8.87;;;10.00;99.90;;;;;;5092801;28;20626;-66
2020/12/15 12:32:24;;;;;;;9.23;8.33;;;10.00;99.90;;;;;;5086332;28;20193;-64
2020/12/15 12:34:50;;;;;;;8.43;7.63;;;10.00;99.90;;;;;;5073306;28;20180;-67
2020/12/15 12:37:15;;;;;;;9.10;8.20;;;10.00;99.90;;;;;;5073004;28;20232;-65
2020/12/15 12:39:41;;;;;;;8.47;7.63;;;10.00;99.90;;;;;;5071720;28;20150;-66
2020/12/15 12:42:07;;;;;;;8.90;7.53;;;9.90;99.90;;;;;;5072847;28;20158;-64
2020/12/15 12:44:32;;;;;;;8.37;7.57;;;10.00;99.90;;;;;;5073964;28;20158;-64
2020/12/15 12:46:58;;;;;;;8.87;7.17;;;10.00;99.90;;;;;;5073005;28;20166;-64
2020/12/15 12:49:24;;;;;;;8.07;7.27;;;9.90;99.90;;;;;;5073336;28;20650;-64
2020/12/15 12:51:52;;;;;;;9.23;6.97;;;10.00;99.90;;;;;;5072770;28;20435;-64
2020/12/15 12:54:17;;;;;;;8.60;7.80;;;9.90;99.90;;;;;;5073149;28;20237;-64
2020/12/15 12:56:43;;;;;;;7.70;7.00;;;9.90;99.90;;;;;;5082049;28;20509;-64
2020/12/15 12:59:09;;;;;;;8.50;7.70;;;9.90;99.90;;;;;;5093638;28;20267;-64
2020/12/15 13:01:35;;;;;;;8.23;7.43;;;9.90;99.90;;;;;;5093767;28;20796;-64
2020/12/15 13:04:02;;;;;;;11.53;9.63;;;9.90;99.90;;;;;;5092962;28;20387;-66